Time;durP1;ratioP1;P1;durP2;ratioP2;P2;SDS_P1;SDS_P2;PMS_P1;PMS_P2;Temp;Humidity;BMP_temperature;BMP_pressure;BME280_temperature;BME280_humidity;BME280_pressure;Samples;Min_cycle;Max_cycle;Signal;HPM_P1;HPM_P2
2021/04/23 00:01:13;;;;;;;12.43;6.15;;;;;;;4.27;64.93;100762.15;121669;1155;24696;-74
2021/04/23 00:03:44;;;;;;;10.45;5.70;;;;;;;4.29;65.35;100763.67;121751;1155;24716;-74
2021/04/23 00:06:32;;;;;;;9.20;5.47;;;;;;;4.32;65.16;100765.23;121537;1159;22617;-74
2021/04/23 00:09:16;;;;;;;9.53;6.30;;;;;;;4.32;65.23;100771.29;121155;1160;22591;-74
2021/04/23 00:12:02;;;;;;;12.23;7.63;;;;;;;4.33;65.42;100767.75;121319;1159;22559;-74
2021/04/23 00:14:41;;;;;;;11.85;6.58;;;;;;;4.35;65.31;100767.61;121439;1160;22562;-73
2021/04/23 00:17:11;;;;;;;14.40;7.43;;;;;;;4.34;65.11;100768.57;121471;1159;22640;-74
2021/04/23 00:19:41;;;;;;;14.40;7.28;;;;;;;4.32;65.29;100767.84;121537;1159;22577;-75
2021/04/23 00:22:09;;;;;;;11.07;6.70;;;;;;;4.31;65.27;100777.48;121480;1159;24402;-73
2021/04/23 00:24:38;;;;;;;12.23;6.40;;;;;;;4.29;65.32;100768.08;121445;1155;22574;-75
2021/04/23 00:27:07;;;;;;;12.58;7.78;;;;;;;4.28;65.63;100766.42;121837;1152;22530;-75
2021/04/23 00:29:36;;;;;;;12.50;7.77;;;;;;;4.24;65.05;100766.65;122142;1152;22543;-73
2021/04/23 00:34:53;;;;;;;16.15;9.40;;;;;;;4.19;65.69;100770.55;122167;1152;25167;-74
2021/04/23 00:37:21;;;;;;;15.63;7.10;;;;;;;4.21;65.58;100773.90;122044;1156;22545;-73
2021/04/23 00:39:49;;;;;;;12.05;6.35;;;;;;;4.20;65.99;100772.24;122022;1156;22568;-74
2021/04/23 00:42:17;;;;;;;11.90;7.65;;;;;;;4.18;65.72;100769.73;122009;1155;24680;-74
2021/04/23 00:44:46;;;;;;;14.48;7.80;;;;;;;4.18;65.82;100774.13;121688;1155;24593;-74
2021/04/23 00:47:14;;;;;;;12.23;7.40;;;;;;;4.16;65.85;100771.61;122031;1155;25244;-75
2021/04/23 00:49:43;;;;;;;9.80;6.80;;;;;;;4.14;66.49;100773.53;122052;1155;22619;-75
2021/04/23 00:52:11;;;;;;;13.63;6.25;;;;;;;4.14;66.13;100783.16;122013;1155;22635;-73
2021/04/23 00:54:39;;;;;;;19.93;6.88;;;;;;;4.10;66.13;100776.47;122001;1153;22538;-74
2021/04/23 00:57:08;;;;;;;12.03;6.30;;;;;;;4.06;66.17;100772.43;122019;1155;22625;-74
2021/04/23 00:59:36;;;;;;;12.90;5.75;;;;;;;4.03;66.28;100773.48;122060;1155;22551;-74
2021/04/23 01:02:10;;;;;;;10.38;6.68;;;;;;;4.00;66.36;100771.13;121679;1155;22544;-75
2021/04/23 01:04:38;;;;;;;12.53;6.07;;;;;;;3.98;66.56;100773.84;121698;1155;22550;-75
2021/04/23 01:07:08;;;;;;;12.60;6.35;;;;;;;3.98;66.52;100773.02;121510;1158;22583;-73
2021/04/23 01:09:36;;;;;;;11.38;6.08;;;;;;;3.97;66.56;100771.36;121502;1156;22553;-74
2021/04/23 01:12:05;;;;;;;11.40;6.25;;;;;;;3.98;67.01;100767.78;121503;1156;22677;-73
2021/04/23 01:14:34;;;;;;;13.53;6.95;;;;;;;3.98;66.82;100773.84;121597;1155;22555;-73
2021/04/23 01:17:02;;;;;;;14.85;6.65;;;;;;;3.99;67.03;100772.05;121797;1155;22584;-74
2021/04/23 01:19:32;;;;;;;14.10;7.25;;;;;;;4.00;66.75;100779.80;121493;1158;22559;-74
2021/04/23 01:22:00;;;;;;;13.78;7.35;;;;;;;4.01;66.99;100781.45;121125;1161;22587;-74
2021/04/23 01:24:29;;;;;;;15.43;7.83;;;;;;;4.01;67.10;100778.02;121150;1158;24524;-74
2021/04/23 01:26:57;;;;;;;16.68;7.13;;;;;;;4.03;67.09;100783.11;121503;1156;22652;-74
2021/04/23 01:29:26;;;;;;;15.63;7.13;;;;;;;4.02;67.08;100784.90;121573;1156;22559;-74
2021/04/23 01:31:58;;;;;;;18.03;7.40;;;;;;;3.99;66.87;100785.13;121512;1158;23007;-73
2021/04/23 01:34:41;;;;;;;12.60;7.40;;;;;;;3.96;67.11;100785.35;121538;1156;23074;-73
2021/04/23 01:37:12;;;;;;;17.48;8.13;;;;;;;3.93;67.16;100785.58;121589;1156;22541;-73
2021/04/23 01:39:42;;;;;;;15.88;7.50;;;;;;;3.91;67.35;100785.70;121714;1152;22532;-73
2021/04/23 01:42:14;;;;;;;18.73;7.83;;;;;;;3.92;67.43;100781.31;122233;1152;24683;-74
2021/04/23 01:44:42;;;;;;;11.93;6.78;;;;;;;3.94;67.35;100787.27;122345;1152;22983;-75
2021/04/23 01:47:11;;;;;;;13.10;6.95;;;;;;;3.96;67.68;100769.67;121615;1157;22555;-75
2021/04/23 01:49:39;;;;;;;15.23;8.10;;;;;;;3.98;67.55;100786.91;121711;1155;22559;-75
2021/04/23 01:52:15;;;;;;;13.33;6.70;;;;;;;3.97;67.65;100790.48;121683;1155;24436;-74
2021/04/23 01:54:46;;;;;;;13.55;7.48;;;;;;;3.97;67.60;100789.66;121605;1155;22616;-73
2021/04/23 01:57:16;;;;;;;15.73;8.00;;;;;;;3.97;67.66;100794.88;122000;1155;24695;-74
2021/04/23 01:59:47;;;;;;;13.83;7.50;;;;;;;3.97;67.89;100795.71;121662;1155;22559;-73
2021/04/23 02:02:17;;;;;;;13.17;7.37;;;;;;;3.97;67.83;100787.88;121968;1155;22714;-73
2021/04/23 02:04:47;;;;;;;15.83;8.18;;;;;;;3.98;67.50;100791.31;121681;1155;22551;-74
2021/04/23 02:07:18;;;;;;;19.88;8.55;;;;;;;3.96;67.98;100794.02;121657;1155;22550;-73
2021/04/23 02:09:47;;;;;;;13.65;9.40;;;;;;;3.97;67.71;100800.11;122096;1155;22554;-74
2021/04/23 02:12:17;;;;;;;13.27;8.70;;;;;;;3.96;67.86;100803.65;121716;1155;22569;-74
2021/04/23 02:14:45;;;;;;;15.38;8.88;;;;;;;3.94;67.58;100795.11;121583;1155;22775;-74
2021/04/23 02:17:13;;;;;;;14.70;7.90;;;;;;;3.91;67.77;100800.56;121992;1155;22546;-74
2021/04/23 02:19:41;;;;;;;13.08;8.43;;;;;;;3.88;68.01;100793.77;121495;1157;24734;-74
2021/04/23 02:22:10;;;;;;;13.90;8.28;;;;;;;3.84;67.97;100792.34;121608;1158;22553;-74
2021/04/23 02:24:38;;;;;;;15.33;8.08;;;;;;;3.77;67.80;100794.58;121520;1158;22604;-74
2021/04/23 02:27:07;;;;;;;13.77;7.50;;;;;;;3.72;68.03;100801.91;121443;1159;22548;-75
2021/04/23 02:29:35;;;;;;;19.10;8.60;;;;;;;3.69;68.26;100798.69;121749;1155;22544;-73
2021/04/23 02:32:04;;;;;;;15.98;8.38;;;;;;;3.65;68.19;100800.69;122017;1156;22577;-74
2021/04/23 02:34:33;;;;;;;14.90;9.30;;;;;;;3.62;68.22;100802.70;121946;1155;24703;-74
2021/04/23 02:37:01;;;;;;;12.25;7.65;;;;;;;3.59;68.16;100810.75;121698;1153;22611;-74
2021/04/23 02:39:30;;;;;;;12.90;8.27;;;;;;;3.54;68.23;100808.48;122411;1152;22520;-73
2021/04/23 02:41:58;;;;;;;13.58;8.83;;;;;;;3.53;68.73;100801.58;122347;1152;25166;-73
2021/04/23 02:44:30;;;;;;;12.43;7.38;;;;;;;3.50;68.91;100813.10;122180;1155;22537;-75
2021/04/23 02:46:59;;;;;;;11.70;7.33;;;;;;;3.52;69.25;100812.98;122152;1152;22541;-75
2021/04/23 02:49:28;;;;;;;17.75;8.50;;;;;;;3.53;69.24;100820.72;121670;1155;22555;-75
2021/04/23 02:51:59;;;;;;;;;;;;;;;3.49;68.72;100819.25;122024;1159;22560;-74
2021/04/23 02:54:28;;;;;;;21.65;9.53;;;;;;;3.44;69.16;100817.94;122020;1155;21434;-75
2021/04/23 02:56:56;;;;;;;14.73;9.03;;;;;;;3.46;69.27;100818.64;121672;1155;22577;-74
2021/04/23 02:59:24;;;;;;;16.55;9.80;;;;;;;3.46;69.26;100816.86;121977;1156;22781;-74
2021/04/23 03:01:56;;;;;;;18.33;8.98;;;;;;;3.45;69.38;100817.81;121649;1155;25035;-74
2021/04/23 03:04:27;;;;;;;16.33;8.48;;;;;;;3.41;68.91;100824.20;121537;1156;22564;-74
2021/04/23 03:06:56;;;;;;;17.35;9.85;;;;;;;3.38;69.08;100818.38;121548;1157;22621;-72
2021/04/23 03:09:24;;;;;;;15.00;9.55;;;;;;;3.32;69.01;100819.63;121988;1155;22545;-73
2021/04/23 03:11:56;;;;;;;16.75;9.25;;;;;;;3.29;69.17;100823.29;121688;1156;22611;-74
2021/04/23 03:14:25;;;;;;;13.60;8.73;;;;;;;3.27;69.41;100825.20;122002;1155;24693;-74
2021/04/23 03:16:54;;;;;;;16.38;9.05;;;;;;;3.26;69.39;100826.11;121980;1155;24076;-73
2021/04/23 03:19:22;;;;;;;16.15;8.75;;;;;;;3.26;69.50;100826.11;121661;1156;22546;-74
2021/04/23 03:21:51;;;;;;;17.38;9.38;;;;;;;3.21;69.44;100816.96;122050;1152;22603;-74
2021/04/23 03:24:20;;;;;;;17.65;9.65;;;;;;;3.18;69.93;100828.45;122025;1155;22536;-73
2021/04/23 03:26:49;;;;;;;16.53;10.25;;;;;;;3.15;69.48;100833.89;122051;1156;22544;-73
2021/04/23 03:29:19;;;;;;;16.48;9.35;;;;;;;3.13;69.76;100829.70;121662;1155;22558;-73
2021/04/23 03:31:48;;;;;;;15.58;9.78;;;;;;;3.14;70.30;100832.23;121678;1155;22591;-73
2021/04/23 03:34:16;;;;;;;15.18;9.25;;;;;;;3.16;70.18;100832.11;121977;1155;22537;-73
2021/04/23 03:36:45;;;;;;;16.68;10.75;;;;;;;3.13;70.02;100834.92;122006;1155;22535;-73
2021/04/23 03:39:13;;;;;;;20.63;10.35;;;;;;;3.14;70.21;100836.62;121999;1155;22539;-72
2021/04/23 03:41:42;;;;;;;16.88;10.15;;;;;;;3.14;70.31;100836.62;122032;1155;22548;-72
2021/04/23 03:44:11;;;;;;;12.13;9.63;;;;;;;3.13;70.32;100838.37;122113;1152;24753;-73
2021/04/23 03:46:39;;;;;;;16.80;10.20;;;;;;;3.15;70.58;100844.33;122346;1153;22520;-73
2021/04/23 03:49:08;;;;;;;12.73;9.55;;;;;;;3.14;70.45;100847.89;122413;1152;22522;-73
2021/04/23 03:51:37;;;;;;;14.05;8.23;;;;;;;3.14;70.53;100841.84;122449;1152;22534;-73
2021/04/23 03:54:06;;;;;;;19.33;9.28;;;;;;;3.15;70.64;100840.89;122482;1151;22528;-73
2021/04/23 03:56:34;;;;;;;15.33;8.93;;;;;;;3.14;70.80;100855.72;122480;1153;22538;-73
2021/04/23 03:59:03;;;;;;;16.35;9.08;;;;;;;3.13;70.77;100840.98;122455;1154;22527;-74
2021/04/23 04:01:34;;;;;;;17.43;8.68;;;;;;;3.18;70.92;100853.73;122381;1152;25425;-74
2021/04/23 04:04:06;;;;;;;15.10;9.75;;;;;;;3.20;71.15;100846.60;122168;1154;22533;-74
2021/04/23 04:06:34;;;;;;;16.98;9.88;;;;;;;3.24;71.04;100856.74;122287;1154;22535;-73
2021/04/23 04:09:05;;;;;;;19.65;10.15;;;;;;;3.34;71.68;100856.10;122206;1152;22537;-73
2021/04/23 04:11:34;;;;;;;19.18;10.60;;;;;;;3.48;71.76;100864.61;122355;1152;22520;-72
2021/04/23 04:14:02;;;;;;;19.68;10.15;;;;;;;3.60;71.82;100862.91;122262;1152;24694;-73
2021/04/23 04:16:31;;;;;;;18.20;10.98;;;;;;;3.72;71.88;100867.23;122197;1151;22550;-73
2021/04/23 04:19:01;;;;;;;17.30;10.83;;;;;;;3.86;71.95;100865.39;122134;1152;24774;-72
2021/04/23 04:21:30;;;;;;;12.50;9.03;;;;;;;3.97;71.58;100865.46;122162;1152;24519;-73
2021/04/23 04:23:59;;;;;;;18.18;9.05;;;;;;;4.08;71.40;100870.72;122209;1152;22541;-72
2021/04/23 04:26:28;;;;;;;15.78;10.25;;;;;;;4.22;71.51;100867.91;122148;1152;24776;-72
2021/04/23 04:28:56;;;;;;;15.55;10.23;;;;;;;4.35;71.16;100872.23;122001;1155;22547;-72
2021/04/23 04:31:24;;;;;;;17.18;9.65;;;;;;;4.47;70.97;100871.33;121841;1157;24445;-72
2021/04/23 04:33:54;;;;;;;20.43;11.10;;;;;;;4.62;70.61;100870.14;121608;1157;22548;-72
2021/04/23 04:36:23;;;;;;;15.43;10.00;;;;;;;4.80;70.74;100877.54;121530;1158;22667;-73
2021/04/23 04:38:51;;;;;;;14.83;9.63;;;;;;;4.96;70.48;100880.65;121440;1158;25195;-71
2021/04/23 04:41:20;;;;;;;16.55;9.33;;;;;;;5.11;69.91;100878.64;121615;1155;23286;-72
2021/04/23 04:43:48;;;;;;;15.43;9.35;;;;;;;5.25;69.88;100877.56;121555;1155;22550;-72
2021/04/23 04:46:17;;;;;;;15.83;8.97;;;;;;;5.38;69.43;100879.09;121958;1155;24710;-72
2021/04/23 04:48:45;;;;;;;15.43;9.85;;;;;;;5.51;69.02;100878.13;122031;1153;24379;-72
2021/04/23 04:51:14;;;;;;;18.38;9.00;;;;;;;5.68;69.09;100884.64;122421;1151;22709;-72
2021/04/23 04:53:42;;;;;;;16.18;9.15;;;;;;;5.80;68.36;100881.04;122403;1155;24680;-74
2021/04/23 04:56:11;;;;;;;15.38;9.43;;;;;;;5.89;68.02;100890.76;122241;1152;22531;-74
2021/04/23 04:58:41;;;;;;;20.18;8.60;;;;;;;6.06;68.12;100892.87;122164;1152;24764;-76
2021/04/23 05:01:14;;;;;;;11.88;8.50;;;;;;;6.19;67.37;100895.33;122200;1152;22525;-75
2021/04/23 05:03:43;;;;;;;16.13;10.15;;;;;;;6.34;67.39;100890.63;122438;1151;22623;-75
2021/04/23 05:06:12;;;;;;;13.83;7.85;;;;;;;6.50;67.11;100888.39;122233;1152;22532;-75
2021/04/23 05:08:41;;;;;;;10.50;7.43;;;;;;;6.62;66.59;100890.94;122243;1152;22526;-75
2021/04/23 05:11:10;;;;;;;21.08;9.10;;;;;;;6.75;66.44;100902.06;122188;1154;24677;-75
2021/04/23 05:13:38;;;;;;;17.60;9.48;;;;;;;6.88;66.12;100904.50;122342;1152;22539;-76
2021/04/23 05:16:07;;;;;;;13.48;8.10;;;;;;;7.06;65.72;100905.53;122370;1151;22522;-76
2021/04/23 05:18:35;;;;;;;18.70;8.63;;;;;;;7.21;65.53;100904.23;122377;1152;24673;-75
2021/04/23 05:21:05;;;;;;;15.00;8.15;;;;;;;7.26;65.21;100909.94;122352;1152;22549;-75
2021/04/23 05:23:33;;;;;;;14.83;8.30;;;;;;;7.42;64.79;100904.16;122270;1152;23323;-75
2021/04/23 05:26:02;;;;;;;13.58;9.33;;;;;;;7.67;65.58;100909.91;122100;1153;22971;-75
2021/04/23 05:28:30;;;;;;;14.40;9.23;;;;;;;7.98;65.16;100900.95;121633;1155;24242;-75
2021/04/23 05:30:58;;;;;;;13.13;8.33;;;;;;;8.30;64.58;100914.80;121508;1156;22879;-77
2021/04/23 05:33:28;;;;;;;15.83;8.50;;;;;;;8.45;63.36;100916.90;121563;1155;23075;-75
2021/04/23 05:35:57;;;;;;;16.20;8.00;;;;;;;8.40;62.44;100911.23;121543;1155;22554;-75
2021/04/23 05:38:25;;;;;;;12.10;8.23;;;;;;;8.32;61.81;100910.23;121187;1158;24703;-75
2021/04/23 05:40:54;;;;;;;15.40;8.88;;;;;;;8.31;62.16;100911.21;121280;1158;22576;-75
2021/04/23 05:43:22;;;;;;;16.45;9.35;;;;;;;8.36;61.93;100915.06;121211;1158;24751;-75
2021/04/23 05:45:50;;;;;;;16.83;8.98;;;;;;;8.43;61.98;100910.11;121480;1159;22577;-75
2021/04/23 05:48:19;;;;;;;14.40;9.30;;;;;;;8.54;62.17;100915.23;121492;1159;22572;-76
2021/04/23 05:50:49;;;;;;;16.00;8.63;;;;;;;8.69;61.72;100923.52;121502;1156;22602;-77
2021/04/23 05:53:17;;;;;;;13.50;8.13;;;;;;;8.67;61.13;100917.58;121825;1156;22556;-76
2021/04/23 05:55:46;;;;;;;20.60;9.90;;;;;;;8.58;60.54;100910.52;122058;1152;22546;-76
2021/04/23 05:58:15;;;;;;;17.55;8.88;;;;;;;8.48;60.43;100915.80;122477;1153;24892;-77
2021/04/23 06:00:44;;;;;;;14.68;8.78;;;;;;;8.34;60.60;100922.29;122221;1152;22916;-78
2021/04/23 06:03:14;;;;;;;14.15;7.95;;;;;;;8.20;60.24;100917.45;122122;1155;24384;-77
2021/04/23 06:05:43;;;;;;;17.95;8.25;;;;;;;8.06;60.70;100920.47;121500;1158;22556;-74
2021/04/23 06:08:13;;;;;;;12.77;8.63;;;;;;;8.00;60.82;100927.96;121445;1159;23586;-75
2021/04/23 06:10:47;;;;;;;17.95;8.88;;;;;;;7.95;61.01;100919.63;121249;1159;22675;-74
2021/04/23 06:13:16;;;;;;;22.63;9.68;;;;;;;8.00;61.52;100921.88;121160;1161;24809;-76
2021/04/23 06:15:46;;;;;;;19.68;9.28;;;;;;;8.16;61.69;100914.27;121165;1159;22585;-75
2021/04/23 06:18:14;;;;;;;21.80;9.25;;;;;;;8.38;62.03;100922.88;121117;1161;22642;-76
2021/04/23 06:20:45;;;;;;;18.00;8.48;;;;;;;8.55;61.95;100916.89;121023;1161;22576;-76
2021/04/23 06:23:18;;;;;;;11.08;8.25;;;;;;;8.91;62.01;100919.73;121214;1161;23591;-76
2021/04/23 06:25:46;;;;;;;16.55;8.18;;;;;;;9.35;61.56;100919.98;121114;1161;22585;-76
2021/04/23 06:28:15;;;;;;;15.35;8.13;;;;;;;9.57;60.22;100921.42;121208;1155;22564;-77
2021/04/23 06:30:44;;;;;;;13.28;7.70;;;;;;;9.67;59.26;100930.11;121986;1152;22521;-76
2021/04/23 06:33:18;;;;;;;20.23;8.73;;;;;;;9.53;58.19;100920.89;122235;1151;22527;-77
2021/04/23 06:35:49;;;;;;;14.58;7.78;;;;;;;9.48;58.54;100924.93;122235;1152;24417;-76
2021/04/23 06:38:17;;;;;;;18.25;8.48;;;;;;;9.59;58.38;100925.55;122278;1152;22525;-77
2021/04/23 06:40:46;;;;;;;16.73;8.38;;;;;;;9.60;58.02;100937.78;122213;1152;22529;-76
2021/04/23 06:43:14;;;;;;;14.05;8.00;;;;;;;9.55;57.45;100932.09;122239;1152;22543;-76
2021/04/23 06:45:45;;;;;;;15.00;8.75;;;;;;;9.40;56.86;100937.05;122451;1151;24680;-75
2021/04/23 06:48:14;;;;;;;11.73;8.68;;;;;;;9.21;57.04;100945.03;122451;1152;22539;-76
2021/04/23 06:50:43;;;;;;;16.30;8.83;;;;;;;9.10;57.80;100945.22;122318;1152;24670;-76
2021/04/23 06:53:12;;;;;;;21.95;10.50;;;;;;;8.96;57.25;100941.20;122437;1154;22521;-75
2021/04/23 06:55:43;;;;;;;17.93;8.78;;;;;;;8.81;57.72;100943.47;121874;1155;22551;-76
2021/04/23 06:58:13;;;;;;;13.70;9.10;;;;;;;8.77;58.20;100947.37;121566;1156;24707;-75
2021/04/23 07:00:43;;;;;;;19.03;12.45;;;;;;;8.71;58.16;100948.75;121545;1158;25730;-75
2021/04/23 07:03:12;;;;;;;18.37;10.63;;;;;;;8.72;58.67;100946.95;121123;1161;24711;-75
2021/04/23 07:05:43;;;;;;;27.98;12.75;;;;;;;8.83;58.55;100944.17;121145;1161;22575;-75
2021/04/23 07:08:12;;;;;;;21.53;9.98;;;;;;;8.87;58.20;100955.26;121154;1161;25201;-78
2021/04/23 07:10:43;;;;;;;15.13;9.15;;;;;;;8.90;58.38;100953.17;121165;1162;22589;-75
2021/04/23 07:13:13;;;;;;;22.00;10.43;;;;;;;9.00;58.73;100950.52;121073;1158;22596;-75
2021/04/23 07:15:41;;;;;;;18.03;9.90;;;;;;;9.26;58.25;100942.77;121205;1159;22559;-76
2021/04/23 07:18:10;;;;;;;14.55;10.00;;;;;;;9.38;58.03;100948.70;121562;1158;22550;-76
2021/04/23 07:20:43;;;;;;;18.30;9.85;;;;;;;9.52;57.38;100948.22;121539;1156;22707;-75
2021/04/23 07:23:12;;;;;;;17.65;8.70;;;;;;;9.60;56.66;100948.33;121697;1155;22731;-75
2021/04/23 07:25:40;;;;;;;15.37;8.60;;;;;;;9.87;57.00;100947.48;121958;1155;22540;-76
2021/04/23 07:28:09;;;;;;;17.63;10.15;;;;;;;10.35;57.34;100948.95;122050;1154;25195;-75
2021/04/23 07:30:40;;;;;;;12.13;8.10;;;;;;;10.75;56.07;100950.27;122028;1154;22541;-76
2021/04/23 07:33:12;;;;;;;17.10;8.75;;;;;;;11.26;55.37;100951.27;121850;1156;24707;-75
2021/04/23 07:35:44;;;;;;;13.45;7.70;;;;;;;11.68;53.84;100944.32;122003;1155;22540;-76
2021/04/23 07:38:13;;;;;;;15.95;8.03;;;;;;;11.97;52.79;100951.89;122019;1155;22553;-76
2021/04/23 07:40:43;;;;;;;12.90;7.95;;;;;;;12.24;51.89;100946.30;122029;1155;22537;-76
2021/04/23 07:43:12;;;;;;;13.10;7.50;;;;;;;12.65;51.25;100959.55;122163;1155;22560;-77
2021/04/23 07:46:01;;;;;;;13.68;7.78;;;;;;;13.02;50.13;100954.70;122309;1155;24680;-82
2021/04/23 07:48:30;;;;;;;12.20;7.40;;;;;;;13.37;49.54;100958.80;122192;1152;25163;-77
2021/04/23 07:50:59;;;;;;;13.68;7.43;;;;;;;13.63;48.46;100956.70;122306;1153;24679;-77
2021/04/23 07:53:27;;;;;;;13.28;6.80;;;;;;;13.80;47.64;100961.94;122488;1152;22528;-77
2021/04/23 07:55:56;;;;;;;12.58;6.50;;;;;;;14.04;46.75;100953.83;122318;1153;24422;-77
2021/04/23 07:58:25;;;;;;;10.13;5.78;;;;;;;14.20;45.88;100968.02;122290;1152;22523;-77
2021/04/23 08:00:53;;;;;;;15.10;6.83;;;;;;;14.31;45.42;100964.94;122226;1152;22527;-72
2021/04/23 08:03:23;;;;;;;14.80;7.63;;;;;;;14.43;45.43;100958.22;122404;1151;22534;-74
2021/04/23 08:05:52;;;;;;;10.45;6.23;;;;;;;14.54;44.67;100968.45;122341;1152;22557;-73
2021/04/23 08:08:40;;;;;;;12.33;7.65;;;;;;;14.74;44.13;100973.27;122390;1153;22506;-73
2021/04/23 08:11:10;;;;;;;11.87;6.63;;;;;;;14.68;43.34;100968.67;122185;1152;22902;-73
2021/04/23 08:13:38;;;;;;;9.63;6.20;;;;;;;14.77;43.71;100970.26;122345;1152;24677;-72
2021/04/23 08:16:06;;;;;;;10.38;6.83;;;;;;;14.94;43.18;100968.27;122312;1153;22540;-72
2021/04/23 08:18:35;;;;;;;11.18;6.38;;;;;;;15.04;42.64;100966.99;122434;1152;22536;-72
2021/04/23 08:21:06;;;;;;;17.80;7.05;;;;;;;15.20;42.30;100962.52;122173;1152;24694;-72
2021/04/23 08:23:36;;;;;;;9.90;5.53;;;;;;;15.35;41.62;100968.66;122213;1152;24503;-73
2021/04/23 08:26:05;;;;;;;8.98;6.38;;;;;;;15.49;41.29;100967.84;122079;1155;23618;-73
2021/04/23 08:28:33;;;;;;;12.30;8.83;;;;;;;15.67;41.06;100964.81;121139;1158;22559;-73
2021/04/23 08:31:02;;;;;;;10.65;6.90;;;;;;;15.76;39.92;100962.84;121469;1156;23087;-73
2021/04/23 08:33:30;;;;;;;39.90;6.50;;;;;;;15.77;39.69;100953.86;121498;1158;22560;-73
2021/04/23 08:35:59;;;;;;;10.68;6.13;;;;;;;15.76;39.70;100963.70;121400;1158;24597;-73
2021/04/23 08:38:27;;;;;;;10.15;5.80;;;;;;;15.75;39.17;100958.55;121528;1158;22652;-73
2021/04/23 08:40:57;;;;;;;12.13;5.70;;;;;;;15.77;39.19;100964.52;121457;1159;22558;-74
2021/04/23 08:43:26;;;;;;;12.80;6.30;;;;;;;15.93;39.08;100961.64;121519;1158;25205;-73
2021/04/23 08:45:54;;;;;;;11.67;6.17;;;;;;;16.02;38.70;100950.84;121655;1155;23146;-76
2021/04/23 08:48:24;;;;;;;10.25;5.83;;;;;;;16.16;38.34;100958.81;121738;1154;22556;-79
2021/04/23 08:50:53;;;;;;;10.35;5.13;;;;;;;16.21;37.87;100966.23;121968;1152;24380;-80
2021/04/23 08:53:27;;;;;;;10.45;5.53;;;;;;;16.30;37.52;100959.77;122312;1151;22832;-76
2021/04/23 08:55:57;;;;;;;10.98;5.35;;;;;;;16.44;37.69;100961.53;122455;1152;22538;-76
2021/04/23 08:58:26;;;;;;;10.33;6.05;;;;;;;16.27;36.41;100959.33;122369;1152;22519;-79
2021/04/23 09:00:54;;;;;;;10.03;6.13;;;;;;;15.78;36.42;100966.16;122231;1153;22530;-78
2021/04/23 09:03:24;;;;;;;11.65;6.28;;;;;;;15.73;37.67;100979.23;122428;1152;22528;-78
2021/04/23 09:06:17;;;;;;;12.80;6.68;;;;;;;15.91;38.14;100968.16;122045;1155;22545;-77
2021/04/23 09:08:55;;;;;;;11.67;6.43;;;;;;;16.00;37.34;100965.20;122065;1155;23467;-77
2021/04/23 09:11:42;;;;;;;15.43;6.20;;;;;;;16.06;37.39;100954.78;122084;1155;22877;-76
2021/04/23 09:14:19;;;;;;;9.90;5.45;;;;;;;15.75;36.68;100954.03;122208;1155;22554;-76
2021/04/23 09:16:58;;;;;;;10.45;5.80;;;;;;;15.44;37.10;100962.23;122080;1155;22538;-76
2021/04/23 09:19:31;;;;;;;12.18;7.05;;;;;;;15.43;37.53;100960.59;121733;1156;23190;-76
2021/04/23 09:22:31;;;;;;;7.78;5.90;;;;;;;15.16;37.04;100953.22;122057;1155;22544;-75
2021/04/23 09:25:13;;;;;;;10.95;6.65;;;;;;;15.21;38.31;100945.53;121462;1158;22561;-80
2021/04/23 09:27:49;;;;;;;9.28;7.03;;;;;;;15.56;37.30;100948.44;121335;1158;22916;-79
2021/04/23 09:30:25;;;;;;;11.98;6.95;;;;;;;15.83;37.86;100931.81;121697;1155;22556;-81
2021/04/23 09:32:54;;;;;;;10.83;7.50;;;;;;;15.96;36.16;100939.09;121732;1158;24517;-79
2021/04/23 09:35:22;;;;;;;13.50;7.20;;;;;;;15.67;35.90;100932.85;121512;1158;24709;-78
2021/04/23 09:38:10;;;;;;;12.20;5.98;;;;;;;15.18;36.13;100948.56;121778;1156;24755;-78
2021/04/23 09:40:39;;;;;;;8.05;5.53;;;;;;;14.62;36.36;100938.30;121715;1158;24787;-80
2021/04/23 09:43:08;;;;;;;11.70;5.78;;;;;;;14.22;36.80;100942.08;121525;1158;24585;-78
2021/04/23 09:45:59;;;;;;;13.43;5.93;;;;;;;13.79;37.65;100942.50;121258;1158;22608;-80
2021/04/23 09:48:28;;;;;;;10.58;4.63;;;;;;;13.38;37.98;100939.22;121345;1158;24466;-75
2021/04/23 09:50:58;;;;;;;9.85;5.25;;;;;;;12.90;37.88;100946.29;121330;1159;23006;-75
2021/04/23 09:53:31;;;;;;;8.25;4.68;;;;;;;12.42;38.56;100940.01;121503;1159;22662;-74
2021/04/23 09:55:59;;;;;;;9.85;5.13;;;;;;;12.12;39.03;100944.13;121540;1159;26051;-75
2021/04/23 09:58:28;;;;;;;9.80;6.30;;;;;;;12.10;39.86;100938.18;121188;1161;24419;-75
2021/04/23 10:01:01;;;;;;;13.80;5.90;;;;;;;12.12;39.94;100947.59;120876;1161;24823;-75
2021/04/23 10:03:33;;;;;;;10.70;5.90;;;;;;;12.14;39.99;100940.33;121051;1162;22641;-75
2021/04/23 10:06:22;;;;;;;10.33;6.13;;;;;;;12.01;39.58;100955.86;121160;1161;22642;-76
2021/04/23 10:08:51;;;;;;;11.43;5.25;;;;;;;11.92;40.22;100943.59;121150;1158;22599;-74
2021/04/23 10:11:19;;;;;;;8.25;4.60;;;;;;;11.97;39.92;100944.77;121211;1160;22657;-74
2021/04/23 10:13:47;;;;;;;9.93;5.33;;;;;;;12.25;40.33;100939.17;121261;1160;24625;-75
2021/04/23 10:16:37;;;;;;;9.05;5.95;;;;;;;12.82;39.83;100933.84;121485;1158;23069;-76
2021/04/23 10:19:05;;;;;;;10.15;5.83;;;;;;;13.39;39.17;100927.59;121288;1155;22605;-75
2021/04/23 10:21:34;;;;;;;13.70;6.83;;;;;;;13.83;38.28;100935.04;121801;1155;25698;-75
2021/04/23 10:24:03;;;;;;;11.90;5.13;;;;;;;13.80;36.57;100930.08;122209;1152;22529;-76
2021/04/23 10:26:31;;;;;;;9.28;6.08;;;;;;;13.64;37.11;100934.45;122428;1152;23307;-75
2021/04/23 10:29:01;;;;;;;9.80;6.28;;;;;;;13.91;37.47;100934.98;122415;1151;22622;-76
2021/04/23 10:31:30;;;;;;;14.48;7.53;;;;;;;14.12;36.71;100936.99;122434;1152;22531;-76
2021/04/23 10:34:00;;;;;;;15.53;6.38;;;;;;;14.25;36.62;100918.63;122231;1153;22532;-76
2021/04/23 10:36:30;;;;;;;11.58;6.45;;;;;;;14.33;36.62;100923.90;122544;1152;24409;-75
2021/04/23 10:38:58;;;;;;;11.10;5.75;;;;;;;14.46;36.43;100928.63;122465;1152;22535;-76
2021/04/23 10:41:37;;;;;;;12.43;6.45;;;;;;;14.35;35.56;100923.70;122073;1153;22547;-76
2021/04/23 10:44:08;;;;;;;9.80;4.95;;;;;;;14.19;35.32;100929.97;122036;1155;22545;-76
2021/04/23 10:46:51;;;;;;;10.83;5.93;;;;;;;14.06;35.58;100929.72;121637;1155;22648;-75
2021/04/23 10:49:20;;;;;;;10.60;5.50;;;;;;;13.64;35.22;100945.08;121548;1155;22560;-77
2021/04/23 10:52:05;;;;;;;11.83;5.43;;;;;;;13.07;35.87;100961.17;121792;1155;22991;-75
2021/04/23 10:54:34;;;;;;;12.48;6.80;;;;;;;12.61;37.68;100954.77;121536;1158;22558;-78
2021/04/23 10:57:06;;;;;;;13.17;5.70;;;;;;;12.35;38.45;100962.86;121007;1164;22572;-79
2021/04/23 10:59:36;;;;;;;12.83;5.58;;;;;;;12.10;39.01;100957.55;120982;1161;22751;-78
2021/04/23 11:02:16;;;;;;;7.90;3.77;;;;;;;11.84;39.30;100970.88;121176;1161;22997;-76
2021/04/23 11:05:00;;;;;;;7.58;4.30;;;;;;;11.70;40.12;100969.64;121262;1158;22562;-78
2021/04/23 11:07:31;;;;;;;7.88;5.50;;;;;;;11.65;40.81;100960.52;121295;1158;25262;-77
2021/04/23 11:10:04;;;;;;;10.75;4.83;;;;;;;11.64;40.47;100964.16;121308;1158;24495;-78
2021/04/23 11:12:35;;;;;;;10.35;5.35;;;;;;;11.56;40.62;100951.70;121416;1158;22561;-77
2021/04/23 11:15:17;;;;;;;11.07;5.70;;;;;;;11.47;41.19;100957.97;121601;1155;22558;-78
2021/04/23 11:17:45;;;;;;;;;;;;;;;11.32;40.98;100965.66;122168;1156;22701;-76
2021/04/23 11:20:28;;;;;;;8.25;5.28;;;;;;;11.23;41.13;100978.03;121802;1155;22194;-76
2021/04/23 11:22:59;;;;;;;10.50;5.35;;;;;;;11.21;41.41;100968.59;121745;1154;22932;-75
2021/04/23 11:25:28;;;;;;;13.15;5.30;;;;;;;11.18;41.20;100972.36;121778;1155;22534;-77
2021/04/23 11:28:00;;;;;;;11.13;5.15;;;;;;;11.14;41.38;100971.02;121665;1156;22550;-77
2021/04/23 11:31:08;;;;;;;10.60;5.00;;;;;;;11.22;42.28;100978.17;122050;1158;25457;-78
2021/04/23 11:34:02;;;;;;;7.43;4.35;;;;;;;11.23;42.17;100987.75;121889;1155;24696;-77